»·PEaware :: UAL687 KEWR-KIAH

UAL687 :: KEWR-KIAH

FLIGHT INFORMATION

Flight Status: Arrived
Operator:
United Airlines
More flights by this operator :: More flights under this callsign
Pilot: Thomas C. (28508)
Aircraft: BOEING 777-200
(B772)
More flights by this aircraft type
Origin: KEWR Newark Intl
United States
Destination: KIAH G Bush Intercontinental/Houst
United States
More flights between these airports :: More routes between these airports
Route: PARKE J6 LRP/N0487F320 J6 MRB/N0477F380 J6 BWG UJM Q31 DHART J180 SWB SKNRD4
File this flight plan on PilotEdge
Remarks: PBN / A1B1C1D1L1O1S2 NAV / RNVD1E2A1 DOF / 200322 REG / N788UA EET / KZDC0033 KZID0101 KZME0141 KZFW0238 KZHU0249 SEL / ASCF OPR / UAL PER / D RMK / TCAS
Altitude:
(Current/Filed)
38,000ft
Speed:
(Current/Filed)
476kts
Departed: 22-Mar-20 12:43 PM
Arrived: 22-Mar-20 04:14 PM
Distance/Time
Traveled:
1214nm/3:31
Distance/Time
To Go:
Arrived

Flight Plot

Page will automatically refresh every two minutes.


Map Options




Map Legend


Flown Route
Filed Route
Departure Airport
Arrival Airport
Navaid (VOR, NDB)
Fix

Horizontal Profiles

Position Reports

Time Latitude Longitude Heading Altitude Ground
Speed
22-Mar-20 12:14 40.696791 -74.176810 168 35ft 0kts
22-Mar-20 12:15 40.696791 -74.176810 168 35ft 0kts
22-Mar-20 12:16 40.696791 -74.176810 168 35ft 0kts
22-Mar-20 12:17 40.696791 -74.176810 168 35ft 0kts
22-Mar-20 12:18 40.696791 -74.176810 168 35ft 0kts
22-Mar-20 12:19 40.696791 -74.176810 168 35ft 0kts
22-Mar-20 12:20 40.696790 -74.176810 168 35ft 0kts
22-Mar-20 12:21 40.696790 -74.176810 168 35ft 0kts
22-Mar-20 12:22 40.696790 -74.176810 168 35ft 0kts
22-Mar-20 12:23 40.696790 -74.176810 168 35ft 0kts
22-Mar-20 12:24 40.696790 -74.176810 168 35ft 0kts
22-Mar-20 12:25 40.696790 -74.176810 168 35ft 0kts
22-Mar-20 12:26 40.696790 -74.176810 168 35ft 0kts
22-Mar-20 12:27 40.696790 -74.176810 168 35ft 0kts
22-Mar-20 12:28 40.696790 -74.176810 168 35ft 0kts
22-Mar-20 12:29 40.696790 -74.176810 168 35ft 0kts
22-Mar-20 12:30 40.696790 -74.176810 168 35ft 0kts
22-Mar-20 12:31 40.696791 -74.176810 168 35ft 0kts
22-Mar-20 12:32 40.697149 -74.176719 185 35ft 2kts
22-Mar-20 12:34 40.697255 -74.177243 21 35ft 1kts
22-Mar-20 12:35 40.697843 -74.176783 42 35ft 0kts
22-Mar-20 12:36 40.697843 -74.176782 42 35ft 0kts
22-Mar-20 12:37 40.698114 -74.176467 41 35ft 10kts
22-Mar-20 12:38 40.699124 -74.173047 124 35ft 15kts
22-Mar-20 12:39 40.695157 -74.169803 172 35ft 19kts
22-Mar-20 12:40 40.689549 -74.172029 206 35ft 23kts
22-Mar-20 12:41 40.683192 -74.176060 205 35ft 27kts
22-Mar-20 12:42 40.676772 -74.180133 206 35ft 14kts
22-Mar-20 12:43 40.678097 -74.177688 25 35ft 58kts
22-Mar-20 12:44 40.711329 -74.150994 51 1134ft 181kts
22-Mar-20 12:45 40.756811 -74.093784 13 2955ft 256kts
22-Mar-20 12:46 40.796352 -74.155301 273 3165ft 260kts
22-Mar-20 12:47 40.783400 -74.248782 258 6835ft 267kts
22-Mar-20 12:48 40.771815 -74.344466 263 10384ft 271kts
22-Mar-20 12:49 40.758423 -74.459392 263 12358ft 342kts
22-Mar-20 12:50 40.743231 -74.585333 263 16302ft 344kts
22-Mar-20 12:50 40.730643 -74.689987 262 19141ft 349kts
22-Mar-20 12:52 40.712136 -74.841993 262 22174ft 370kts
22-Mar-20 12:53 40.695276 -74.978994 263 24528ft 387kts
22-Mar-20 12:53 40.673963 -75.094698 248 26570ft 401kts
22-Mar-20 12:54 40.616211 -75.223309 245 28707ft 413kts
22-Mar-20 12:56 40.546093 -75.376632 245 31024ft 420kts
22-Mar-20 12:57 40.485762 -75.507749 246 33446ft 413kts
22-Mar-20 12:57 40.437420 -75.612495 246 35597ft 400kts
22-Mar-20 12:58 40.379481 -75.737514 245 37331ft 398kts
22-Mar-20 13:00 40.313513 -75.879199 245 38566ft 388kts
22-Mar-20 13:00 40.266744 -75.979303 245 38562ft 388kts
22-Mar-20 13:01 40.210375 -76.099506 245 38559ft 387kts
22-Mar-20 13:02 40.153991 -76.219289 245 38557ft 385kts
22-Mar-20 13:03 40.098258 -76.338576 245 38553ft 384kts
22-Mar-20 13:04 40.043216 -76.457752 245 38551ft 383kts
22-Mar-20 13:05 39.988022 -76.576870 245 38548ft 383kts
22-Mar-20 13:06 39.932608 -76.695982 245 38543ft 384kts
22-Mar-20 13:07 39.878079 -76.812796 245 38540ft 383kts
22-Mar-20 13:08 39.821974 -76.932514 244 38537ft 384kts
22-Mar-20 13:09 39.766198 -77.051070 244 38534ft 384kts
22-Mar-20 13:10 39.710345 -77.169346 244 38531ft 384kts
22-Mar-20 13:11 39.654500 -77.287155 244 38528ft 384kts
22-Mar-20 13:12 39.598287 -77.405293 244 38526ft 384kts
22-Mar-20 13:13 39.542077 -77.523006 244 38088ft 384kts
22-Mar-20 13:14 39.485750 -77.640478 244 38210ft 384kts
22-Mar-20 13:15 39.429115 -77.758165 243 38510ft 386kts
22-Mar-20 13:16 39.373103 -77.876165 248 38506ft 382kts
22-Mar-20 13:17 39.325760 -77.999120 246 38506ft 382kts
22-Mar-20 13:18 39.277304 -78.120969 245 38504ft 382kts
22-Mar-20 13:19 39.228665 -78.242656 245 38500ft 382kts
22-Mar-20 13:20 39.179630 -78.364836 245 38498ft 383kts
22-Mar-20 13:21 39.130627 -78.486448 245 38495ft 383kts
22-Mar-20 13:22 39.081534 -78.607803 245 38492ft 383kts
22-Mar-20 13:23 39.032854 -78.727642 244 38509ft 384kts
22-Mar-20 13:24 38.983144 -78.849564 244 38452ft 384kts
22-Mar-20 13:25 38.933439 -78.970954 244 38450ft 385kts
22-Mar-20 13:26 38.884179 -79.090783 244 38456ft 385kts
22-Mar-20 13:27 38.837655 -79.214198 255 38452ft 383kts
22-Mar-20 13:28 38.813417 -79.347701 256 38455ft 384kts
22-Mar-20 13:29 38.789215 -79.481563 256 38446ft 385kts
22-Mar-20 13:30 38.764968 -79.614959 255 38437ft 385kts
22-Mar-20 13:31 38.740712 -79.747456 255 38353ft 385kts
22-Mar-20 13:32 38.716144 -79.880775 255 38350ft 386kts
22-Mar-20 13:33 38.691321 -80.014539 255 38347ft 386kts
22-Mar-20 13:34 38.666367 -80.148075 255 38344ft 387kts
22-Mar-20 13:35 38.641180 -80.281933 255 38315ft 388kts
22-Mar-20 13:36 38.615763 -80.416100 255 38312ft 389kts
22-Mar-20 13:37 38.590130 -80.550505 255 38309ft 389kts
22-Mar-20 13:38 38.564578 -80.683519 254 38328ft 390kts
22-Mar-20 13:39 38.538543 -80.818301 254 38322ft 391kts
22-Mar-20 13:40 38.512313 -80.953129 254 38318ft 391kts
22-Mar-20 13:41 38.485867 -81.088162 254 38317ft 392kts
22-Mar-20 13:42 38.459260 -81.223128 254 38314ft 393kts
22-Mar-20 13:43 38.432489 -81.358042 254 38311ft 394kts
22-Mar-20 13:44 38.405423 -81.493557 254 38309ft 394kts
22-Mar-20 13:45 38.378222 -81.628867 254 38306ft 395kts
22-Mar-20 13:46 38.350814 -81.763708 252 38322ft 395kts
22-Mar-20 13:47 38.314565 -81.895421 249 38319ft 396kts
22-Mar-20 13:48 38.277549 -82.027530 249 38316ft 397kts
22-Mar-20 13:49 38.240173 -82.160061 249 38313ft 397kts
22-Mar-20 13:50 38.202689 -82.292301 249 38311ft 398kts
22-Mar-20 13:51 38.164953 -82.424729 249 38308ft 399kts
22-Mar-20 13:52 38.127082 -82.556967 249 38306ft 399kts
22-Mar-20 13:53 38.089621 -82.687077 249 38322ft 400kts
22-Mar-20 13:54 38.051346 -82.819458 249 38317ft 401kts
22-Mar-20 13:55 38.012747 -82.952267 249 38315ft 401kts
22-Mar-20 13:56 37.974011 -83.084898 249 38286ft 402kts
22-Mar-20 13:57 37.935049 -83.217648 249 38283ft 403kts
22-Mar-20 13:58 37.897080 -83.346396 249 38284ft 403kts
22-Mar-20 13:59 37.857677 -83.479348 249 38287ft 404kts
22-Mar-20 14:00 37.817954 -83.612742 249 38284ft 405kts
22-Mar-20 14:01 37.779375 -83.741678 248 38298ft 405kts
22-Mar-20 14:02 37.739183 -83.875379 248 38295ft 406kts
22-Mar-20 14:03 37.698982 -84.008455 248 38293ft 406kts
22-Mar-20 14:04 37.658600 -84.141488 248 38291ft 407kts
22-Mar-20 14:05 37.617665 -84.275329 248 38261ft 407kts
22-Mar-20 14:06 37.576526 -84.409167 248 38243ft 408kts
22-Mar-20 14:07 37.535315 -84.542590 248 38256ft 409kts
22-Mar-20 14:08 37.494977 -84.672555 247 38268ft 409kts
22-Mar-20 14:09 37.453446 -84.806523 248 38267ft 410kts
22-Mar-20 14:10 37.411870 -84.940331 248 38264ft 410kts
22-Mar-20 14:11 37.370175 -85.073548 248 38289ft 411kts
22-Mar-20 14:12 37.328115 -85.206925 248 38287ft 411kts
22-Mar-20 14:13 37.285819 -85.340417 248 38285ft 411kts
22-Mar-20 14:14 37.243459 -85.473490 248 38282ft 411kts
22-Mar-20 14:15 37.200935 -85.606464 248 38280ft 411kts
22-Mar-20 14:16 37.158463 -85.738646 248 38212ft 411kts
22-Mar-20 14:17 37.115438 -85.871952 248 38210ft 411kts
22-Mar-20 14:18 37.072399 -86.004693 248 38207ft 412kts
22-Mar-20 14:19 37.029304 -86.137002 248 38205ft 412kts
22-Mar-20 14:20 36.985928 -86.269566 248 38203ft 412kts
22-Mar-20 14:21 36.942414 -86.401945 248 38201ft 412kts
22-Mar-20 14:22 36.886040 -86.524654 239 38204ft 414kts
22-Mar-20 14:23 36.822997 -86.645089 239 38202ft 414kts
22-Mar-20 14:24 36.760709 -86.763366 239 38215ft 414kts
22-Mar-20 14:25 36.697353 -86.883235 239 38187ft 414kts
22-Mar-20 14:26 36.633665 -87.003290 239 38184ft 415kts
22-Mar-20 14:27 36.570105 -87.122680 239 38182ft 415kts
22-Mar-20 14:28 36.506235 -87.242230 240 38179ft 415kts
22-Mar-20 14:29 36.442209 -87.361655 240 38177ft 415kts
22-Mar-20 14:30 36.378335 -87.480378 240 38175ft 415kts
22-Mar-20 14:31 36.314149 -87.599268 240 38173ft 414kts
22-Mar-20 14:32 36.250947 -87.715924 240 38187ft 415kts
22-Mar-20 14:33 36.186401 -87.834662 240 38200ft 414kts
22-Mar-20 14:34 36.121829 -87.953036 240 38210ft 414kts
22-Mar-20 14:35 36.057344 -88.070846 240 38208ft 414kts
22-Mar-20 14:36 35.992710 -88.188523 240 38202ft 414kts
22-Mar-20 14:37 35.928162 -88.305644 240 38177ft 414kts
22-Mar-20 14:38 35.863215 -88.423081 241 38176ft 413kts
22-Mar-20 14:39 35.798572 -88.539578 241 38174ft 413kts
22-Mar-20 14:41 35.734730 -88.654249 240 38202ft 413kts
22-Mar-20 14:42 35.669589 -88.770867 241 38214ft 413kts
22-Mar-20 14:43 35.604596 -88.886830 241 38212ft 413kts
22-Mar-20 14:44 35.539451 -89.002677 241 38210ft 412kts
22-Mar-20 14:45 35.474242 -89.118252 241 38208ft 412kts
22-Mar-20 14:46 35.409049 -89.233417 241 38206ft 411kts
22-Mar-20 14:47 35.343859 -89.348200 241 38204ft 411kts
22-Mar-20 14:48 35.278416 -89.463052 242 38201ft 410kts
22-Mar-20 14:49 35.213075 -89.577349 242 38199ft 410kts
22-Mar-20 14:50 35.147788 -89.691166 241 38219ft 410kts
22-Mar-20 14:51 35.082312 -89.804968 242 38215ft 409kts
22-Mar-20 14:52 35.016512 -89.918958 242 38213ft 408kts
22-Mar-20 14:53 34.950874 -90.032315 242 38211ft 408kts
22-Mar-20 14:54 34.885111 -90.145524 242 38206ft 409kts
22-Mar-20 14:55 34.819317 -90.258408 242 38204ft 409kts
22-Mar-20 14:56 34.753168 -90.371586 242 38202ft 411kts
22-Mar-20 14:57 34.686793 -90.484701 242 38200ft 412kts
22-Mar-20 14:58 34.620040 -90.598142 242 38198ft 412kts
22-Mar-20 14:58 34.564254 -90.692490 241 38218ft 414kts
22-Mar-20 15:00 34.485533 -90.824234 241 38214ft 414kts
22-Mar-20 15:01 34.417826 -90.937150 241 38212ft 415kts
22-Mar-20 15:02 34.349756 -91.050312 241 38183ft 415kts
22-Mar-20 15:02 34.292923 -91.144523 241 38181ft 416kts
22-Mar-20 15:03 34.224567 -91.257506 241 38179ft 417kts
22-Mar-20 15:05 34.144569 -91.389286 241 38177ft 417kts
22-Mar-20 15:05 34.087447 -91.483088 241 38175ft 418kts
22-Mar-20 15:06 34.018469 -91.596037 241 38173ft 419kts
22-Mar-20 15:07 33.949072 -91.709303 241 38164ft 420kts
22-Mar-20 15:08 33.879638 -91.822288 241 38171ft 420kts
22-Mar-20 15:09 33.809774 -91.935624 241 38183ft 421kts
22-Mar-20 15:10 33.739881 -92.048649 241 38154ft 422kts
22-Mar-20 15:11 33.668923 -92.160741 235 38147ft 429kts
22-Mar-20 15:12 33.573998 -92.253850 228 38151ft 441kts
22-Mar-20 15:13 33.477683 -92.344482 228 38150ft 442kts
22-Mar-20 15:14 33.372061 -92.423073 207 38153ft 474kts
22-Mar-20 15:15 33.240454 -92.448257 198 38066ft 457kts
22-Mar-20 15:16 33.113769 -92.471423 199 38156ft 471kts
22-Mar-20 15:17 32.981917 -92.495479 199 38157ft 491kts
22-Mar-20 15:18 32.846273 -92.520066 199 38143ft 491kts
22-Mar-20 15:19 32.711364 -92.544512 199 38144ft 493kts
22-Mar-20 15:20 32.575841 -92.569013 199 38145ft 494kts
22-Mar-20 15:21 32.440403 -92.593433 198 38146ft 495kts
22-Mar-20 15:22 32.304120 -92.617930 198 38146ft 496kts
22-Mar-20 15:23 32.168113 -92.642303 198 38147ft 497kts
22-Mar-20 15:24 32.031239 -92.667423 201 38163ft 493kts
22-Mar-20 15:25 31.915192 -92.734910 233 38143ft 449kts
22-Mar-20 15:26 31.828698 -92.839949 233 38129ft 450kts
22-Mar-20 15:27 31.738253 -92.942266 232 38128ft 452kts
22-Mar-20 15:28 31.647611 -93.044086 233 38127ft 453kts
22-Mar-20 15:29 31.556499 -93.146117 233 38126ft 454kts
22-Mar-20 15:30 31.465093 -93.248188 233 38097ft 454kts
22-Mar-20 15:31 31.373404 -93.350282 233 38097ft 455kts
22-Mar-20 15:32 31.281522 -93.452302 233 38097ft 456kts
22-Mar-20 15:33 31.189431 -93.554282 233 37895ft 460kts
22-Mar-20 15:34 31.097266 -93.656079 232 35986ft 455kts
22-Mar-20 15:35 31.004275 -93.758503 231 34111ft 462kts
22-Mar-20 15:36 30.911134 -93.860722 230 32101ft 452kts
22-Mar-20 15:37 30.822286 -93.958163 229 30084ft 437kts
22-Mar-20 15:38 30.733830 -94.055043 228 28164ft 418kts
22-Mar-20 15:39 30.649614 -94.147062 228 28128ft 415kts
22-Mar-20 15:40 30.562556 -94.238077 227 28126ft 416kts
22-Mar-20 15:41 30.476375 -94.327174 226 26461ft 420kts
22-Mar-20 15:42 30.397643 -94.417107 240 21415ft 380kts
22-Mar-20 15:43 30.353645 -94.519854 246 18840ft 334kts
22-Mar-20 15:44 30.313801 -94.616772 246 17181ft 324kts
22-Mar-20 15:45 30.275042 -94.711241 245 15687ft 315kts
22-Mar-20 15:46 30.238375 -94.801208 245 14485ft 277kts
22-Mar-20 15:47 30.205581 -94.881551 244 13204ft 272kts
22-Mar-20 15:48 30.173111 -94.960886 244 11980ft 267kts
22-Mar-20 15:49 30.141215 -95.038651 243 10725ft 262kts
22-Mar-20 15:50 30.119732 -95.119059 257 9526ft 259kts
22-Mar-20 15:51 30.106417 -95.201868 259 8352ft 256kts
22-Mar-20 15:52 30.093156 -95.286337 263 7033ft 255kts
22-Mar-20 15:53 30.092555 -95.366969 270 6452ft 225kts
22-Mar-20 15:54 30.092665 -95.438602 266 6064ft 243kts
22-Mar-20 15:55 30.107612 -95.512899 288 6003ft 239kts
22-Mar-20 15:56 30.132856 -95.585024 290 5998ft 241kts
22-Mar-20 15:57 30.157179 -95.654164 291 5994ft 217kts
22-Mar-20 15:58 30.180323 -95.719851 291 6002ft 220kts
22-Mar-20 15:59 30.203397 -95.785533 289 5996ft 218kts
22-Mar-20 16:00 30.198055 -95.847601 192 5959ft 186kts
22-Mar-20 16:01 30.144561 -95.833726 172 4637ft 200kts
22-Mar-20 16:02 30.090396 -95.825971 175 3893ft 190kts
22-Mar-20 16:03 30.038170 -95.813088 130 3004ft 196kts
22-Mar-20 16:04 30.007311 -95.761019 96 2991ft 195kts
22-Mar-20 16:05 30.006873 -95.697899 88 3002ft 195kts
22-Mar-20 16:06 30.006893 -95.634816 88 3002ft 195kts
22-Mar-20 16:07 30.007022 -95.572605 91 2971ft 182kts
22-Mar-20 16:08 30.007183 -95.517216 90 2622ft 152kts
22-Mar-20 16:09 30.007148 -95.469140 89 1999ft 145kts
22-Mar-20 16:10 30.007258 -95.421747 88 1181ft 144kts
22-Mar-20 16:11 30.007158 -95.374378 90 407ft 147kts
22-Mar-20 16:12 30.007178 -95.339798 90 114ft 57kts
22-Mar-20 16:13 30.004795 -95.331029 119 114ft 26kts
22-Mar-20 16:14 30.000692 -95.325411 168 114ft 10kts
22-Mar-20 16:15 29.995084 -95.325387 181 114ft 23kts
22-Mar-20 16:16 29.991783 -95.326582 269 114ft 12kts
22-Mar-20 16:17 29.991043 -95.330319 183 114ft 11kts
22-Mar-20 16:18 29.985378 -95.330271 179 114ft 23kts
22-Mar-20 16:19 29.983042 -95.332153 271 114ft 11kts
22-Mar-20 16:20 29.983789 -95.332564 36 114ft 0kts
22-Mar-20 16:21 29.983788 -95.332564 36 114ft 0kts
22-Mar-20 16:22 29.983788 -95.332564 36 114ft 0kts
22-Mar-20 16:23 29.983788 -95.332564 36 114ft 0kts
22-Mar-20 16:24 29.983788 -95.332564 36 114ft 0kts
22-Mar-20 16:25 29.983788 -95.332564 36 114ft 0kts

Navigation Log

Ident Type
Flight plan parsing failed, navigation log unavailable